Time;durP1;ratioP1;P1;durP2;ratioP2;P2;SDS_P1;SDS_P2;PMS_P1;PMS_P2;Temp;Humidity;BMP_temperature;BMP_pressure;BME280_temperature;BME280_humidity;BME280_pressure;Samples;Min_cycle;Max_cycle;Signal;HPM_P1;HPM_P2
2023/03/03 00:06:43;;;;;;;69.5;42.3;;;;;;;-2.3;85.4;99030;;;;
2023/03/03 00:16:43;;;;;;;48.9;28.4;;;;;;;-2.4;85.8;99020;;;;
2023/03/03 00:26:43;;;;;;;48.9;28.4;;;;;;;-2.5;86.1;99030;;;;
2023/03/03 00:37:43;;;;;;;48.9;28.4;;;;;;;-2.4;86.7;99030;;;;
2023/03/03 00:47:43;;;;;;;40.9;22.9;;;;;;;-2.5;86.8;99020;;;;
2023/03/03 00:58:46;;;;;;;40.9;22.9;;;;;;;-2.5;86.9;99000;;;;
2023/03/03 01:09:43;;;;;;;46;25.8;;;;;;;-2.6;87;98990;;;;
2023/03/03 01:19:43;;;;;;;46;25.8;;;;;;;-2.7;86.8;98980;;;;
2023/03/03 01:29:43;;;;;;;46;25.8;;;;;;;-2.7;86.8;98970;;;;
2023/03/03 01:39:43;;;;;;;35.5;22.8;;;;;;;-2.8;86.8;98980;;;;
2023/03/03 01:49:43;;;;;;;35.5;22.8;;;;;;;-2.9;86.5;98980;;;;
2023/03/03 01:59:43;;;;;;;35.5;22.8;;;;;;;-3.1;86.3;98980;;;;
2023/03/03 02:09:43;;;;;;;39.8;23.9;;;;;;;-3.1;86.2;98980;;;;
2023/03/03 02:20:43;;;;;;;39.8;23.9;;;;;;;-3.1;86.7;98980;;;;
2023/03/03 02:31:43;;;;;;;39.8;23.9;;;;;;;-3.1;87.2;98980;;;;
2023/03/03 02:42:43;;;;;;;43.3;23.3;;;;;;;-3.1;87.2;98970;;;;
2023/03/03 02:53:43;;;;;;;43.3;23.3;;;;;;;-3.2;87;98980;;;;
2023/03/03 03:03:43;;;;;;;43.3;23.3;;;;;;;-3.3;86.7;98980;;;;
2023/03/03 03:13:44;;;;;;;37.8;21.7;;;;;;;-3.5;86.3;98970;;;;
2023/03/03 03:24:43;;;;;;;37.8;21.7;;;;;;;-3.5;86.4;98980;;;;
2023/03/03 03:34:43;;;;;;;37.8;21.7;;;;;;;-3.7;86.2;98970;;;;
2023/03/03 03:44:43;;;;;;;38.2;21.9;;;;;;;-3.7;86.1;98960;;;;
2023/03/03 03:54:43;;;;;;;38.2;21.9;;;;;;;-3.7;86;98970;;;;
2023/03/03 04:05:43;;;;;;;38.2;21.9;;;;;;;-3.8;86;98970;;;;
2023/03/03 04:15:44;;;;;;;41.4;25.5;;;;;;;-3.8;86.1;98970;;;;
2023/03/03 04:26:44;;;;;;;41.4;25.5;;;;;;;-3.9;86.3;98960;;;;
2023/03/03 04:36:43;;;;;;;41.4;25.5;;;;;;;-3.8;87;98960;;;;
2023/03/03 04:46:44;;;;;;;45.1;25.9;;;;;;;-3.8;87;98970;;;;
2023/03/03 04:56:44;;;;;;;45.1;25.9;;;;;;;-4;86.7;98970;;;;
2023/03/03 05:07:43;;;;;;;47.8;28.8;;;;;;;-4;86.4;98980;;;;
2023/03/03 05:17:43;;;;;;;47.8;28.8;;;;;;;-4.1;86.1;98980;;;;
2023/03/03 05:28:43;;;;;;;47.8;28.8;;;;;;;-4.3;85.7;98980;;;;
2023/03/03 05:39:44;;;;;;;42;24;;;;;;;-4.3;85.6;98990;;;;
2023/03/03 05:49:43;;;;;;;42;24;;;;;;;-4.2;85.3;99000;;;;
2023/03/03 05:59:43;;;;;;;42;24;;;;;;;-4.2;85.2;99010;;;;
2023/03/03 06:09:44;;;;;;;47.5;26.9;;;;;;;-4.1;85.5;99020;;;;
2023/03/03 06:20:44;;;;;;;47.5;26.9;;;;;;;-3.9;85.7;99030;;;;
2023/03/03 06:30:44;;;;;;;47.5;26.9;;;;;;;-3.3;86.2;99050;;;;
2023/03/03 06:41:44;;;;;;;57.5;34.3;;;;;;;-2.6;86.8;99070;;;;
2023/03/03 06:51:45;;;;;;;57.5;34.3;;;;;;;-2.3;87.1;99070;;;;
2023/03/03 07:01:44;;;;;;;57.5;34.3;;;;;;;-1.8;88.2;99050;;;;
2023/03/03 07:12:44;;;;;;;81.6;44.7;;;;;;;-1.1;88.7;99050;;;;
2023/03/03 07:23:44;;;;;;;81.6;44.7;;;;;;;-0.5;88.6;99040;;;;
2023/03/03 07:33:44;;;;;;;81.6;44.7;;;;;;;-0.3;88.1;99040;;;;
2023/03/03 07:44:44;;;;;;;69.5;41.8;;;;;;;0.2;87.9;99020;;;;
2023/03/03 07:54:44;;;;;;;69.5;41.8;;;;;;;0.5;86.7;99020;;;;
2023/03/03 08:05:44;;;;;;;69.5;41.8;;;;;;;1.2;85.7;99000;;;;
2023/03/03 08:15:44;;;;;;;69.1;41.2;;;;;;;1.8;85;99010;;;;
2023/03/03 08:26:44;;;;;;;69.1;41.2;;;;;;;2.2;82.3;99000;;;;
2023/03/03 08:36:46;;;;;;;81.3;49.1;;;;;;;2.5;80.2;99020;;;;
2023/03/03 08:47:44;;;;;;;81.3;49.1;;;;;;;3;79.7;99030;;;;
2023/03/03 08:57:44;;;;;;;81.3;49.1;;;;;;;3.3;78.5;99030;;;;
2023/03/03 09:07:44;;;;;;;103.2;65.7;;;;;;;3.2;78.4;99040;;;;
2023/03/03 09:17:44;;;;;;;103.2;65.7;;;;;;;3.2;78.3;99040;;;;
2023/03/03 09:27:44;;;;;;;103.2;65.7;;;;;;;3.3;78.2;99050;;;;
2023/03/03 09:38:44;;;;;;;104;69.6;;;;;;;3.7;76.9;99030;;;;
2023/03/03 09:48:44;;;;;;;104;69.6;;;;;;;3.9;77;99040;;;;
2023/03/03 09:59:44;;;;;;;104;69.6;;;;;;;3.6;76.8;99040;;;;
2023/03/03 10:10:44;;;;;;;103.3;74;;;;;;;3.6;76.9;99030;;;;
2023/03/03 10:21:44;;;;;;;103.3;74;;;;;;;3.4;77.3;99040;;;;
2023/03/03 10:31:44;;;;;;;103.3;74;;;;;;;3.5;77.3;99030;;;;
2023/03/03 10:41:44;;;;;;;112.2;76.9;;;;;;;3.2;77.4;99060;;;;
2023/03/03 10:52:44;;;;;;;112.2;76.9;;;;;;;3;78;99060;;;;
2023/03/03 11:02:44;;;;;;;112.2;76.9;;;;;;;3.3;77.8;99060;;;;
2023/03/03 11:13:45;;;;;;;122;84.6;;;;;;;3.2;77.1;99070;;;;
2023/03/03 11:23:44;;;;;;;122;84.6;;;;;;;3;78.1;99070;;;;
2023/03/03 11:33:44;;;;;;;122;84.6;;;;;;;2.8;77.9;99080;;;;
2023/03/03 11:44:44;;;;;;;135.9;84.4;;;;;;;2.6;78.6;99070;;;;
2023/03/03 11:54:44;;;;;;;135.9;84.4;;;;;;;2.3;78.7;99070;;;;
2023/03/03 12:04:44;;;;;;;135.9;84.4;;;;;;;2.3;78.8;99060;;;;
2023/03/03 12:14:44;;;;;;;114.5;64.2;;;;;;;2.4;78.4;99050;;;;
2023/03/03 12:25:44;;;;;;;114.5;64.2;;;;;;;2.2;78.7;99060;;;;
2023/03/03 12:35:44;;;;;;;103.7;56;;;;;;;2.4;78.2;99060;;;;
2023/03/03 12:45:44;;;;;;;103.7;56;;;;;;;2.1;78.4;99060;;;;
2023/03/03 12:55:44;;;;;;;103.7;56;;;;;;;1.9;79.2;99050;;;;
2023/03/03 13:05:44;;;;;;;80.7;44.5;;;;;;;1.9;79.5;99040;;;;
2023/03/03 13:16:44;;;;;;;80.7;44.5;;;;;;;1.9;79.5;99030;;;;
2023/03/03 13:26:44;;;;;;;80.7;44.5;;;;;;;1.7;80.4;99030;;;;
2023/03/03 13:37:44;;;;;;;71.3;36.6;;;;;;;1.5;81.5;99040;;;;
2023/03/03 13:47:44;;;;;;;71.3;36.6;;;;;;;1.4;82.3;99040;;;;
2023/03/03 13:57:44;;;;;;;71.3;36.6;;;;;;;1.2;82.7;99030;;;;
2023/03/03 14:08:44;;;;;;;57;30.2;;;;;;;0.9;83.5;99040;;;;
2023/03/03 14:18:44;;;;;;;57;30.2;;;;;;;0.9;83.4;99040;;;;
2023/03/03 14:29:46;;;;;;;57;30.2;;;;;;;0.8;83;99030;;;;
2023/03/03 14:40:44;;;;;;;41.8;23.7;;;;;;;0.7;83.6;99030;;;;
2023/03/03 14:50:44;;;;;;;41.8;23.7;;;;;;;0.7;82.7;99030;;;;
2023/03/03 15:01:44;;;;;;;41.8;23.7;;;;;;;0.8;81.2;99030;;;;
2023/03/03 15:11:44;;;;;;;32.8;20.3;;;;;;;0.8;81.6;99020;;;;
2023/03/03 15:22:44;;;;;;;32.8;20.3;;;;;;;0.8;81.7;99030;;;;
2023/03/03 15:33:44;;;;;;;32.8;20.3;;;;;;;0.7;81.8;99030;;;;
2023/03/03 15:43:44;;;;;;;35.8;17.9;;;;;;;0.7;82.1;99020;;;;
2023/03/03 15:53:44;;;;;;;35.8;17.9;;;;;;;0.7;81.8;99010;;;;
2023/03/03 16:03:45;;;;;;;35.8;17.9;;;;;;;0.7;80.9;99030;;;;
2023/03/03 16:14:44;;;;;;;40.2;21.6;;;;;;;0.6;79.9;99030;;;;
2023/03/03 16:24:44;;;;;;;40.2;21.6;;;;;;;0.6;80.3;99030;;;;
2023/03/03 16:34:44;;;;;;;32.1;17.8;;;;;;;0.6;80.7;99040;;;;
2023/03/03 16:44:44;;;;;;;32.1;17.8;;;;;;;0.6;81.6;99060;;;;
2023/03/03 16:54:44;;;;;;;32.1;17.8;;;;;;;0.6;81.2;99060;;;;
2023/03/03 17:05:44;;;;;;;37.8;20.2;;;;;;;0.6;80.1;99060;;;;
2023/03/03 17:15:44;;;;;;;37.8;20.2;;;;;;;0.6;79.7;99060;;;;
2023/03/03 17:25:44;;;;;;;37.8;20.2;;;;;;;0.6;80.3;99060;;;;
2023/03/03 17:35:44;;;;;;;36.9;19.6;;;;;;;0.7;80.2;99050;;;;
2023/03/03 17:46:44;;;;;;;36.9;19.6;;;;;;;0.7;80.3;99060;;;;
2023/03/03 17:57:45;;;;;;;36.9;19.6;;;;;;;0.7;80.2;99050;;;;
2023/03/03 18:07:44;;;;;;;33.2;20.4;;;;;;;0.7;80.2;99060;;;;
2023/03/03 18:18:44;;;;;;;33.2;20.4;;;;;;;0.7;79.8;99060;;;;
2023/03/03 18:29:44;;;;;;;33.2;20.4;;;;;;;0.6;80.1;99070;;;;
2023/03/03 18:39:44;;;;;;;30.1;16.6;;;;;;;0.7;80;99070;;;;
2023/03/03 18:50:44;;;;;;;30.1;16.6;;;;;;;0.6;80.1;99060;;;;
2023/03/03 19:00:44;;;;;;;30.1;16.6;;;;;;;0.6;80.1;99060;;;;
2023/03/03 19:11:45;;;;;;;31.9;15.1;;;;;;;0.6;80;99050;;;;
2023/03/03 19:21:46;;;;;;;31.9;15.1;;;;;;;0.5;79.7;99030;;;;
2023/03/03 19:31:44;;;;;;;31.9;15.1;;;;;;;0.4;79.8;99030;;;;
2023/03/03 19:41:44;;;;;;;23.3;13.2;;;;;;;0.4;79.6;99040;;;;
2023/03/03 19:51:44;;;;;;;23.3;13.2;;;;;;;0.4;79.7;99030;;;;
2023/03/03 20:01:44;;;;;;;23.3;13.2;;;;;;;0.4;79.9;99030;;;;
2023/03/03 20:12:46;;;;;;;33.9;16.9;;;;;;;0.3;80.5;99030;;;;
2023/03/03 20:22:44;;;;;;;33.9;16.9;;;;;;;0.2;80.9;99020;;;;
2023/03/03 20:32:44;;;;;;;33.9;16.9;;;;;;;0.2;80.4;99020;;;;
2023/03/03 20:43:44;;;;;;;31.2;16.1;;;;;;;0.2;80.6;99020;;;;
2023/03/03 20:54:44;;;;;;;31.2;16.1;;;;;;;0.2;80.9;99010;;;;
2023/03/03 21:04:44;;;;;;;35.1;16.1;;;;;;;0.2;81.2;99010;;;;
2023/03/03 21:15:45;;;;;;;35.1;16.1;;;;;;;0.2;81.6;99000;;;;
2023/03/03 21:26:44;;;;;;;35.1;16.1;;;;;;;0.2;82;99000;;;;
2023/03/03 21:37:44;;;;;;;35.8;17.9;;;;;;;0.3;82.2;98990;;;;
2023/03/03 21:48:44;;;;;;;35.8;17.9;;;;;;;0.3;82.3;98980;;;;
2023/03/03 21:59:44;;;;;;;35.8;17.9;;;;;;;0.3;82.5;98970;;;;
2023/03/03 22:09:44;;;;;;;35.7;18.6;;;;;;;0.2;82.8;98960;;;;
2023/03/03 22:20:44;;;;;;;35.7;18.6;;;;;;;0.2;82.9;98960;;;;
2023/03/03 22:30:44;;;;;;;35.7;18.6;;;;;;;0.2;83.4;98940;;;;
2023/03/03 22:40:44;;;;;;;37.8;19.1;;;;;;;0.2;83.4;98930;;;;
2023/03/03 22:50:46;;;;;;;37.8;19.1;;;;;;;0.2;83.6;98920;;;;
2023/03/03 23:00:44;;;;;;;37.8;19.1;;;;;;;0.1;83.8;98890;;;;
2023/03/03 23:10:44;;;;;;;44.9;20.8;;;;;;;0.1;84.2;98890;;;;
2023/03/03 23:21:44;;;;;;;44.9;20.8;;;;;;;0.1;84.4;98890;;;;
2023/03/03 23:31:44;;;;;;;44.9;20.8;;;;;;;0;84.4;98870;;;;
2023/03/03 23:41:44;;;;;;;28;16.2;;;;;;;0.1;84.5;98860;;;;
2023/03/03 23:51:44;;;;;;;28;16.2;;;;;;;0;84.8;98850;;;;
